<?xml version="1.0" encoding="UTF-8" standalone="no" ?>
<gpx xmlns="http://www.topografix.com/GPX/1/1" xmlns:xsi="http://www.w3.org/2001/XMLSchema-instance" xsi:schemaLocation="http://www.topografix.com/GPX/1/1 http://www.topografix.com/GPX/1/1/gpx.xsd" version="1.1" creator="VisuGPX - https://www.visugpx.com">
  <metadata>
    <name>BelleIsleEnTerre_CoatAnNoz</name>
    <desc><![CDATA[gnerando idor: 9221581_9223892_9307726_9314161]]></desc>
  </metadata>
  <trk>
    <name><![CDATA[BIET_CoatAnNoz_20km-9314161]]></name>
    <extensions>
      <line xmlns="http://www.topografix.com/GPX/gpx_style/0/2">
        <color>00FFFF</color>
        <width>4</width>
      </line>
    </extensions>
    <trkseg>
      <trkpt lat="48.54426" lon="-3.39617">
        <ele>94</ele>
        <time>2023-10-30T17:43:47Z</time>
      </trkpt>
      <trkpt lat="48.54419" lon="-3.39624">
        <ele>94</ele>
        <time>2023-10-30T17:43:58Z</time>
      </trkpt>
      <trkpt lat="48.54418" lon="-3.39631">
        <ele>93</ele>
        <time>2023-10-30T17:44:05Z</time>
      </trkpt>
      <trkpt lat="48.54418" lon="-3.39684">
        <ele>92</ele>
        <time>2023-10-30T17:44:51Z</time>
      </trkpt>
      <trkpt lat="48.54413" lon="-3.39724">
        <ele>93</ele>
        <time>2023-10-30T17:45:27Z</time>
      </trkpt>
      <trkpt lat="48.54416" lon="-3.39744">
        <ele>94</ele>
        <time>2023-10-30T17:45:45Z</time>
      </trkpt>
      <trkpt lat="48.54412" lon="-3.39749">
        <ele>94</ele>
        <time>2023-10-30T17:45:52Z</time>
      </trkpt>
      <trkpt lat="48.54392" lon="-3.39754">
        <ele>95</ele>
        <time>2023-10-30T17:46:19Z</time>
      </trkpt>
      <trkpt lat="48.54371" lon="-3.39764">
        <ele>96</ele>
        <time>2023-10-30T17:46:49Z</time>
      </trkpt>
      <trkpt lat="48.54357" lon="-3.39763">
        <ele>96</ele>
        <time>2023-10-30T17:47:08Z</time>
      </trkpt>
      <trkpt lat="48.54352" lon="-3.39767">
        <ele>97</ele>
        <time>2023-10-30T17:47:15Z</time>
      </trkpt>
      <trkpt lat="48.54346" lon="-3.39768">
        <ele>97</ele>
        <time>2023-10-30T17:47:23Z</time>
      </trkpt>
      <trkpt lat="48.54321" lon="-3.39788">
        <ele>100</ele>
        <time>2023-10-30T17:48:01Z</time>
      </trkpt>
      <trkpt lat="48.54307" lon="-3.39787">
        <ele>100</ele>
        <time>2023-10-30T17:48:20Z</time>
      </trkpt>
      <trkpt lat="48.54297" lon="-3.39794">
        <ele>101</ele>
        <time>2023-10-30T17:48:34Z</time>
      </trkpt>
      <trkpt lat="48.54273" lon="-3.39802">
        <ele>101</ele>
        <time>2023-10-30T17:49:07Z</time>
      </trkpt>
      <trkpt lat="48.54259" lon="-3.39798">
        <ele>101</ele>
        <time>2023-10-30T17:49:26Z</time>
      </trkpt>
      <trkpt lat="48.54251" lon="-3.3979">
        <ele>100</ele>
        <time>2023-10-30T17:49:39Z</time>
      </trkpt>
      <trkpt lat="48.54238" lon="-3.39792">
        <ele>100</ele>
        <time>2023-10-30T17:49:56Z</time>
      </trkpt>
      <trkpt lat="48.54181" lon="-3.39812">
        <ele>104</ele>
        <time>2023-10-30T17:51:14Z</time>
      </trkpt>
      <trkpt lat="48.54127" lon="-3.39794">
        <ele>103</ele>
        <time>2023-10-30T17:52:28Z</time>
      </trkpt>
      <trkpt lat="48.54019" lon="-3.39793">
        <ele>103</ele>
        <time>2023-10-30T17:54:52Z</time>
      </trkpt>
      <trkpt lat="48.53995" lon="-3.39802">
        <ele>104</ele>
        <time>2023-10-30T17:55:25Z</time>
      </trkpt>
      <trkpt lat="48.53967" lon="-3.39808">
        <ele>103</ele>
        <time>2023-10-30T17:56:03Z</time>
      </trkpt>
      <trkpt lat="48.53953" lon="-3.39816">
        <ele>102</ele>
        <time>2023-10-30T17:56:23Z</time>
      </trkpt>
      <trkpt lat="48.53931" lon="-3.39838">
        <ele>102</ele>
        <time>2023-10-30T17:56:58Z</time>
      </trkpt>
      <trkpt lat="48.53882" lon="-3.39911">
        <ele>112</ele>
        <time>2023-10-30T17:58:30Z</time>
      </trkpt>
      <trkpt lat="48.53868" lon="-3.39925">
        <ele>114</ele>
        <time>2023-10-30T17:58:53Z</time>
      </trkpt>
      <trkpt lat="48.53864" lon="-3.39941">
        <ele>115</ele>
        <time>2023-10-30T17:59:08Z</time>
      </trkpt>
      <trkpt lat="48.53856" lon="-3.39952">
        <ele>116</ele>
        <time>2023-10-30T17:59:22Z</time>
      </trkpt>
      <trkpt lat="48.53829" lon="-3.39966">
        <ele>117</ele>
        <time>2023-10-30T18:00:00Z</time>
      </trkpt>
      <trkpt lat="48.53815" lon="-3.39968">
        <ele>119</ele>
        <time>2023-10-30T18:00:19Z</time>
      </trkpt>
      <trkpt lat="48.53792" lon="-3.39981">
        <ele>122</ele>
        <time>2023-10-30T18:00:52Z</time>
      </trkpt>
      <trkpt lat="48.53791" lon="-3.40004">
        <ele>122</ele>
        <time>2023-10-30T18:01:12Z</time>
      </trkpt>
      <trkpt lat="48.53794" lon="-3.40032">
        <ele>122</ele>
        <time>2023-10-30T18:01:37Z</time>
      </trkpt>
      <trkpt lat="48.5379" lon="-3.40061">
        <ele>123</ele>
        <time>2023-10-30T18:02:03Z</time>
      </trkpt>
      <trkpt lat="48.53772" lon="-3.40114">
        <ele>127</ele>
        <time>2023-10-30T18:02:56Z</time>
      </trkpt>
      <trkpt lat="48.53763" lon="-3.40115">
        <ele>129</ele>
        <time>2023-10-30T18:03:08Z</time>
      </trkpt>
      <trkpt lat="48.53737" lon="-3.40092">
        <ele>133</ele>
        <time>2023-10-30T18:03:48Z</time>
      </trkpt>
      <trkpt lat="48.53726" lon="-3.40088">
        <ele>134</ele>
        <time>2023-10-30T18:04:03Z</time>
      </trkpt>
      <trkpt lat="48.53694" lon="-3.40114">
        <ele>137</ele>
        <time>2023-10-30T18:04:52Z</time>
      </trkpt>
      <trkpt lat="48.53673" lon="-3.40155">
        <ele>139</ele>
        <time>2023-10-30T18:05:38Z</time>
      </trkpt>
      <trkpt lat="48.53662" lon="-3.40169">
        <ele>140</ele>
        <time>2023-10-30T18:05:57Z</time>
      </trkpt>
      <trkpt lat="48.53648" lon="-3.40162">
        <ele>141</ele>
        <time>2023-10-30T18:06:16Z</time>
      </trkpt>
      <trkpt lat="48.53631" lon="-3.40145">
        <ele>142</ele>
        <time>2023-10-30T18:06:44Z</time>
      </trkpt>
      <trkpt lat="48.53611" lon="-3.40122">
        <ele>143</ele>
        <time>2023-10-30T18:07:17Z</time>
      </trkpt>
      <trkpt lat="48.53597" lon="-3.40096">
        <ele>143</ele>
        <time>2023-10-30T18:07:47Z</time>
      </trkpt>
      <trkpt lat="48.53587" lon="-3.40092">
        <ele>144</ele>
        <time>2023-10-30T18:08:01Z</time>
      </trkpt>
      <trkpt lat="48.53514" lon="-3.4019">
        <ele>148</ele>
        <time>2023-10-30T18:10:11Z</time>
      </trkpt>
      <trkpt lat="48.53494" lon="-3.40229">
        <ele>150</ele>
        <time>2023-10-30T18:10:55Z</time>
      </trkpt>
      <trkpt lat="48.53427" lon="-3.40207">
        <ele>151</ele>
        <time>2023-10-30T18:12:26Z</time>
      </trkpt>
      <trkpt lat="48.53376" lon="-3.40137">
        <ele>152</ele>
        <time>2023-10-30T18:13:58Z</time>
      </trkpt>
      <trkpt lat="48.53319" lon="-3.40178">
        <ele>155</ele>
        <time>2023-10-30T18:15:22Z</time>
      </trkpt>
      <trkpt lat="48.53111" lon="-3.4003">
        <ele>156</ele>
        <time>2023-10-30T18:20:29Z</time>
      </trkpt>
      <trkpt lat="48.52906" lon="-3.39875">
        <ele>136</ele>
        <time>2023-10-30T18:25:35Z</time>
      </trkpt>
      <trkpt lat="48.52807" lon="-3.39838">
        <ele>126</ele>
        <time>2023-10-30T18:27:51Z</time>
      </trkpt>
      <trkpt lat="48.52784" lon="-3.39791">
        <ele>121</ele>
        <time>2023-10-30T18:28:43Z</time>
      </trkpt>
      <trkpt lat="48.52663" lon="-3.39865">
        <ele>120</ele>
        <time>2023-10-30T18:31:37Z</time>
      </trkpt>
      <trkpt lat="48.52553" lon="-3.40003">
        <ele>127</ele>
        <time>2023-10-30T18:34:48Z</time>
      </trkpt>
      <trkpt lat="48.52377" lon="-3.39996">
        <ele>110</ele>
        <time>2023-10-30T18:38:43Z</time>
      </trkpt>
      <trkpt lat="48.52245" lon="-3.40118">
        <ele>119</ele>
        <time>2023-10-30T18:42:09Z</time>
      </trkpt>
      <trkpt lat="48.52196" lon="-3.40093">
        <ele>112</ele>
        <time>2023-10-30T18:43:18Z</time>
      </trkpt>
      <trkpt lat="48.52125" lon="-3.40133">
        <ele>110</ele>
        <time>2023-10-30T18:44:59Z</time>
      </trkpt>
      <trkpt lat="48.51996" lon="-3.40227">
        <ele>110</ele>
        <time>2023-10-30T18:48:11Z</time>
      </trkpt>
      <trkpt lat="48.51892" lon="-3.40374">
        <ele>114</ele>
        <time>2023-10-30T18:51:21Z</time>
      </trkpt>
      <trkpt lat="48.51867" lon="-3.40423">
        <ele>114</ele>
        <time>2023-10-30T18:52:15Z</time>
      </trkpt>
      <trkpt lat="48.51865" lon="-3.40474">
        <ele>113</ele>
        <time>2023-10-30T18:53:01Z</time>
      </trkpt>
      <trkpt lat="48.51868" lon="-3.40494">
        <ele>112</ele>
        <time>2023-10-30T18:53:19Z</time>
      </trkpt>
      <trkpt lat="48.51883" lon="-3.40536">
        <ele>113</ele>
        <time>2023-10-30T18:54:01Z</time>
      </trkpt>
      <trkpt lat="48.5189" lon="-3.40544">
        <ele>113</ele>
        <time>2023-10-30T18:54:13Z</time>
      </trkpt>
      <trkpt lat="48.51903" lon="-3.40572">
        <ele>113</ele>
        <time>2023-10-30T18:54:43Z</time>
      </trkpt>
      <trkpt lat="48.51922" lon="-3.40588">
        <ele>115</ele>
        <time>2023-10-30T18:55:12Z</time>
      </trkpt>
      <trkpt lat="48.51945" lon="-3.40631">
        <ele>119</ele>
        <time>2023-10-30T18:56:01Z</time>
      </trkpt>
      <trkpt lat="48.51953" lon="-3.40651">
        <ele>121</ele>
        <time>2023-10-30T18:56:21Z</time>
      </trkpt>
      <trkpt lat="48.51961" lon="-3.40658">
        <ele>122</ele>
        <time>2023-10-30T18:56:34Z</time>
      </trkpt>
      <trkpt lat="48.51969" lon="-3.40686">
        <ele>122</ele>
        <time>2023-10-30T18:57:01Z</time>
      </trkpt>
      <trkpt lat="48.5198" lon="-3.40698">
        <ele>123</ele>
        <time>2023-10-30T18:57:19Z</time>
      </trkpt>
      <trkpt lat="48.51982" lon="-3.40728">
        <ele>120</ele>
        <time>2023-10-30T18:57:45Z</time>
      </trkpt>
      <trkpt lat="48.5199" lon="-3.40747">
        <ele>119</ele>
        <time>2023-10-30T18:58:05Z</time>
      </trkpt>
      <trkpt lat="48.52007" lon="-3.40763">
        <ele>122</ele>
        <time>2023-10-30T18:58:32Z</time>
      </trkpt>
      <trkpt lat="48.52017" lon="-3.40792">
        <ele>123</ele>
        <time>2023-10-30T18:59:01Z</time>
      </trkpt>
      <trkpt lat="48.52025" lon="-3.4084">
        <ele>122</ele>
        <time>2023-10-30T18:59:45Z</time>
      </trkpt>
      <trkpt lat="48.52024" lon="-3.40868">
        <ele>120</ele>
        <time>2023-10-30T19:00:09Z</time>
      </trkpt>
      <trkpt lat="48.52032" lon="-3.40907">
        <ele>119</ele>
        <time>2023-10-30T19:00:46Z</time>
      </trkpt>
      <trkpt lat="48.52036" lon="-3.41132">
        <ele>114</ele>
        <time>2023-10-30T19:04:04Z</time>
      </trkpt>
      <trkpt lat="48.52053" lon="-3.41232">
        <ele>115</ele>
        <time>2023-10-30T19:05:36Z</time>
      </trkpt>
      <trkpt lat="48.52135" lon="-3.4127">
        <ele>127</ele>
        <time>2023-10-30T19:07:30Z</time>
      </trkpt>
      <trkpt lat="48.52127" lon="-3.4129">
        <ele>127</ele>
        <time>2023-10-30T19:07:51Z</time>
      </trkpt>
      <trkpt lat="48.52112" lon="-3.41302">
        <ele>125</ele>
        <time>2023-10-30T19:08:14Z</time>
      </trkpt>
      <trkpt lat="48.52097" lon="-3.4131">
        <ele>122</ele>
        <time>2023-10-30T19:08:35Z</time>
      </trkpt>
      <trkpt lat="48.52071" lon="-3.41338">
        <ele>119</ele>
        <time>2023-10-30T19:09:17Z</time>
      </trkpt>
      <trkpt lat="48.52068" lon="-3.41352">
        <ele>119</ele>
        <time>2023-10-30T19:09:30Z</time>
      </trkpt>
      <trkpt lat="48.52069" lon="-3.41378">
        <ele>120</ele>
        <time>2023-10-30T19:09:53Z</time>
      </trkpt>
      <trkpt lat="48.52053" lon="-3.41513">
        <ele>123</ele>
        <time>2023-10-30T19:11:55Z</time>
      </trkpt>
      <trkpt lat="48.52041" lon="-3.41576">
        <ele>124</ele>
        <time>2023-10-30T19:12:53Z</time>
      </trkpt>
      <trkpt lat="48.5203" lon="-3.41614">
        <ele>124</ele>
        <time>2023-10-30T19:13:29Z</time>
      </trkpt>
      <trkpt lat="48.52028" lon="-3.41663">
        <ele>129</ele>
        <time>2023-10-30T19:14:13Z</time>
      </trkpt>
      <trkpt lat="48.52023" lon="-3.41691">
        <ele>131</ele>
        <time>2023-10-30T19:14:38Z</time>
      </trkpt>
      <trkpt lat="48.51997" lon="-3.41791">
        <ele>136</ele>
        <time>2023-10-30T19:16:13Z</time>
      </trkpt>
      <trkpt lat="48.51978" lon="-3.41822">
        <ele>136</ele>
        <time>2023-10-30T19:16:51Z</time>
      </trkpt>
      <trkpt lat="48.51942" lon="-3.41828">
        <ele>128</ele>
        <time>2023-10-30T19:17:39Z</time>
      </trkpt>
      <trkpt lat="48.5192" lon="-3.41843">
        <ele>125</ele>
        <time>2023-10-30T19:18:11Z</time>
      </trkpt>
      <trkpt lat="48.51889" lon="-3.41869">
        <ele>124</ele>
        <time>2023-10-30T19:18:58Z</time>
      </trkpt>
      <trkpt lat="48.51857" lon="-3.4189">
        <ele>123</ele>
        <time>2023-10-30T19:19:45Z</time>
      </trkpt>
      <trkpt lat="48.51842" lon="-3.41896">
        <ele>121</ele>
        <time>2023-10-30T19:20:06Z</time>
      </trkpt>
      <trkpt lat="48.51824" lon="-3.41897">
        <ele>119</ele>
        <time>2023-10-30T19:20:30Z</time>
      </trkpt>
      <trkpt lat="48.518" lon="-3.41903">
        <ele>117</ele>
        <time>2023-10-30T19:21:02Z</time>
      </trkpt>
      <trkpt lat="48.51784" lon="-3.41898">
        <ele>115</ele>
        <time>2023-10-30T19:21:24Z</time>
      </trkpt>
      <trkpt lat="48.51782" lon="-3.41895">
        <ele>114</ele>
        <time>2023-10-30T19:21:28Z</time>
      </trkpt>
      <trkpt lat="48.5177" lon="-3.41893">
        <ele>113</ele>
        <time>2023-10-30T19:21:44Z</time>
      </trkpt>
      <trkpt lat="48.51674" lon="-3.4181">
        <ele>109</ele>
        <time>2023-10-30T19:24:11Z</time>
      </trkpt>
      <trkpt lat="48.51656" lon="-3.41791">
        <ele>111</ele>
        <time>2023-10-30T19:24:41Z</time>
      </trkpt>
      <trkpt lat="48.51639" lon="-3.41766">
        <ele>115</ele>
        <time>2023-10-30T19:25:12Z</time>
      </trkpt>
      <trkpt lat="48.51626" lon="-3.41733">
        <ele>118</ele>
        <time>2023-10-30T19:25:46Z</time>
      </trkpt>
      <trkpt lat="48.51612" lon="-3.41706">
        <ele>119</ele>
        <time>2023-10-30T19:26:17Z</time>
      </trkpt>
      <trkpt lat="48.51599" lon="-3.41697">
        <ele>121</ele>
        <time>2023-10-30T19:26:36Z</time>
      </trkpt>
      <trkpt lat="48.51596" lon="-3.41692">
        <ele>121</ele>
        <time>2023-10-30T19:26:42Z</time>
      </trkpt>
      <trkpt lat="48.51576" lon="-3.41681">
        <ele>121</ele>
        <time>2023-10-30T19:27:10Z</time>
      </trkpt>
      <trkpt lat="48.51548" lon="-3.41659">
        <ele>121</ele>
        <time>2023-10-30T19:27:52Z</time>
      </trkpt>
      <trkpt lat="48.5154" lon="-3.41654">
        <ele>121</ele>
        <time>2023-10-30T19:28:04Z</time>
      </trkpt>
      <trkpt lat="48.51531" lon="-3.41652">
        <ele>121</ele>
        <time>2023-10-30T19:28:16Z</time>
      </trkpt>
      <trkpt lat="48.51522" lon="-3.41657">
        <ele>122</ele>
        <time>2023-10-30T19:28:29Z</time>
      </trkpt>
      <trkpt lat="48.51517" lon="-3.41663">
        <ele>123</ele>
        <time>2023-10-30T19:28:37Z</time>
      </trkpt>
      <trkpt lat="48.51488" lon="-3.41741">
        <ele>130</ele>
        <time>2023-10-30T19:29:56Z</time>
      </trkpt>
      <trkpt lat="48.51461" lon="-3.41781">
        <ele>129</ele>
        <time>2023-10-30T19:30:47Z</time>
      </trkpt>
      <trkpt lat="48.5143" lon="-3.41814">
        <ele>128</ele>
        <time>2023-10-30T19:31:37Z</time>
      </trkpt>
      <trkpt lat="48.51421" lon="-3.41819">
        <ele>128</ele>
        <time>2023-10-30T19:31:50Z</time>
      </trkpt>
      <trkpt lat="48.51405" lon="-3.41823">
        <ele>128</ele>
        <time>2023-10-30T19:32:12Z</time>
      </trkpt>
      <trkpt lat="48.51381" lon="-3.41825">
        <ele>127</ele>
        <time>2023-10-30T19:32:44Z</time>
      </trkpt>
      <trkpt lat="48.51358" lon="-3.41819">
        <ele>126</ele>
        <time>2023-10-30T19:33:15Z</time>
      </trkpt>
      <trkpt lat="48.51324" lon="-3.41803">
        <ele>124</ele>
        <time>2023-10-30T19:34:03Z</time>
      </trkpt>
      <trkpt lat="48.51314" lon="-3.4179">
        <ele>124</ele>
        <time>2023-10-30T19:34:20Z</time>
      </trkpt>
      <trkpt lat="48.51313" lon="-3.4177">
        <ele>123</ele>
        <time>2023-10-30T19:34:38Z</time>
      </trkpt>
      <trkpt lat="48.51316" lon="-3.4173">
        <ele>122</ele>
        <time>2023-10-30T19:35:14Z</time>
      </trkpt>
      <trkpt lat="48.51312" lon="-3.4172">
        <ele>123</ele>
        <time>2023-10-30T19:35:24Z</time>
      </trkpt>
      <trkpt lat="48.51309" lon="-3.41728">
        <ele>123</ele>
        <time>2023-10-30T19:35:32Z</time>
      </trkpt>
      <trkpt lat="48.51331" lon="-3.417">
        <ele>124</ele>
        <time>2023-10-30T19:36:10Z</time>
      </trkpt>
      <trkpt lat="48.51337" lon="-3.41679">
        <ele>126</ele>
        <time>2023-10-30T19:36:31Z</time>
      </trkpt>
      <trkpt lat="48.51347" lon="-3.41663">
        <ele>126</ele>
        <time>2023-10-30T19:36:50Z</time>
      </trkpt>
      <trkpt lat="48.51361" lon="-3.41627">
        <ele>127</ele>
        <time>2023-10-30T19:37:27Z</time>
      </trkpt>
      <trkpt lat="48.51381" lon="-3.41558">
        <ele>131</ele>
        <time>2023-10-30T19:38:34Z</time>
      </trkpt>
      <trkpt lat="48.51389" lon="-3.4154">
        <ele>131</ele>
        <time>2023-10-30T19:38:53Z</time>
      </trkpt>
      <trkpt lat="48.51399" lon="-3.41506">
        <ele>133</ele>
        <time>2023-10-30T19:39:26Z</time>
      </trkpt>
      <trkpt lat="48.51406" lon="-3.41463">
        <ele>134</ele>
        <time>2023-10-30T19:40:05Z</time>
      </trkpt>
      <trkpt lat="48.51424" lon="-3.41403">
        <ele>135</ele>
        <time>2023-10-30T19:41:03Z</time>
      </trkpt>
      <trkpt lat="48.51433" lon="-3.4135">
        <ele>137</ele>
        <time>2023-10-30T19:41:51Z</time>
      </trkpt>
      <trkpt lat="48.5144" lon="-3.41323">
        <ele>137</ele>
        <time>2023-10-30T19:42:17Z</time>
      </trkpt>
      <trkpt lat="48.51442" lon="-3.41308">
        <ele>138</ele>
        <time>2023-10-30T19:42:31Z</time>
      </trkpt>
      <trkpt lat="48.51439" lon="-3.4129">
        <ele>140</ele>
        <time>2023-10-30T19:42:47Z</time>
      </trkpt>
      <trkpt lat="48.51418" lon="-3.41261">
        <ele>142</ele>
        <time>2023-10-30T19:43:25Z</time>
      </trkpt>
      <trkpt lat="48.51417" lon="-3.41254">
        <ele>143</ele>
        <time>2023-10-30T19:43:31Z</time>
      </trkpt>
      <trkpt lat="48.51423" lon="-3.41234">
        <ele>143</ele>
        <time>2023-10-30T19:43:51Z</time>
      </trkpt>
      <trkpt lat="48.51437" lon="-3.41202">
        <ele>144</ele>
        <time>2023-10-30T19:44:25Z</time>
      </trkpt>
      <trkpt lat="48.51464" lon="-3.41152">
        <ele>145</ele>
        <time>2023-10-30T19:45:22Z</time>
      </trkpt>
      <trkpt lat="48.51481" lon="-3.4113">
        <ele>145</ele>
        <time>2023-10-30T19:45:51Z</time>
      </trkpt>
      <trkpt lat="48.51491" lon="-3.411">
        <ele>145</ele>
        <time>2023-10-30T19:46:21Z</time>
      </trkpt>
      <trkpt lat="48.5151" lon="-3.41069">
        <ele>145</ele>
        <time>2023-10-30T19:46:58Z</time>
      </trkpt>
      <trkpt lat="48.51534" lon="-3.41009">
        <ele>145</ele>
        <time>2023-10-30T19:48:00Z</time>
      </trkpt>
      <trkpt lat="48.51581" lon="-3.40932">
        <ele>145</ele>
        <time>2023-10-30T19:49:33Z</time>
      </trkpt>
      <trkpt lat="48.51598" lon="-3.40916">
        <ele>144</ele>
        <time>2023-10-30T19:50:00Z</time>
      </trkpt>
      <trkpt lat="48.5164" lon="-3.40951">
        <ele>139</ele>
        <time>2023-10-30T19:51:04Z</time>
      </trkpt>
      <trkpt lat="48.51645" lon="-3.40949">
        <ele>138</ele>
        <time>2023-10-30T19:51:11Z</time>
      </trkpt>
      <trkpt lat="48.51657" lon="-3.40924">
        <ele>138</ele>
        <time>2023-10-30T19:51:38Z</time>
      </trkpt>
      <trkpt lat="48.51661" lon="-3.40909">
        <ele>138</ele>
        <time>2023-10-30T19:51:52Z</time>
      </trkpt>
      <trkpt lat="48.51649" lon="-3.40883">
        <ele>139</ele>
        <time>2023-10-30T19:52:20Z</time>
      </trkpt>
      <trkpt lat="48.51644" lon="-3.40844">
        <ele>140</ele>
        <time>2023-10-30T19:52:55Z</time>
      </trkpt>
      <trkpt lat="48.51649" lon="-3.40825">
        <ele>140</ele>
        <time>2023-10-30T19:53:13Z</time>
      </trkpt>
      <trkpt lat="48.51659" lon="-3.40826">
        <ele>138</ele>
        <time>2023-10-30T19:53:27Z</time>
      </trkpt>
      <trkpt lat="48.51661" lon="-3.4083">
        <ele>138</ele>
        <time>2023-10-30T19:53:31Z</time>
      </trkpt>
      <trkpt lat="48.51658" lon="-3.40834">
        <ele>138</ele>
        <time>2023-10-30T19:53:37Z</time>
      </trkpt>
      <trkpt lat="48.51665" lon="-3.40846">
        <ele>137</ele>
        <time>2023-10-30T19:53:51Z</time>
      </trkpt>
      <trkpt lat="48.5166" lon="-3.40847">
        <ele>138</ele>
        <time>2023-10-30T19:53:57Z</time>
      </trkpt>
      <trkpt lat="48.5166" lon="-3.40856">
        <ele>138</ele>
        <time>2023-10-30T19:54:05Z</time>
      </trkpt>
      <trkpt lat="48.51666" lon="-3.40866">
        <ele>137</ele>
        <time>2023-10-30T19:54:17Z</time>
      </trkpt>
      <trkpt lat="48.51677" lon="-3.40863">
        <ele>135</ele>
        <time>2023-10-30T19:54:32Z</time>
      </trkpt>
      <trkpt lat="48.51668" lon="-3.40853">
        <ele>137</ele>
        <time>2023-10-30T19:54:47Z</time>
      </trkpt>
      <trkpt lat="48.51664" lon="-3.40838">
        <ele>137</ele>
        <time>2023-10-30T19:55:01Z</time>
      </trkpt>
      <trkpt lat="48.51659" lon="-3.40776">
        <ele>141</ele>
        <time>2023-10-30T19:55:57Z</time>
      </trkpt>
      <trkpt lat="48.51654" lon="-3.40764">
        <ele>142</ele>
        <time>2023-10-30T19:56:09Z</time>
      </trkpt>
      <trkpt lat="48.51645" lon="-3.40719">
        <ele>146</ele>
        <time>2023-10-30T19:56:51Z</time>
      </trkpt>
      <trkpt lat="48.51667" lon="-3.40681">
        <ele>147</ele>
        <time>2023-10-30T19:57:35Z</time>
      </trkpt>
      <trkpt lat="48.51685" lon="-3.4064">
        <ele>146</ele>
        <time>2023-10-30T19:58:19Z</time>
      </trkpt>
      <trkpt lat="48.51698" lon="-3.40626">
        <ele>145</ele>
        <time>2023-10-30T19:58:40Z</time>
      </trkpt>
      <trkpt lat="48.51719" lon="-3.40591">
        <ele>143</ele>
        <time>2023-10-30T19:59:22Z</time>
      </trkpt>
      <trkpt lat="48.51724" lon="-3.40573">
        <ele>143</ele>
        <time>2023-10-30T19:59:39Z</time>
      </trkpt>
      <trkpt lat="48.51725" lon="-3.40557">
        <ele>144</ele>
        <time>2023-10-30T19:59:53Z</time>
      </trkpt>
      <trkpt lat="48.51735" lon="-3.40525">
        <ele>144</ele>
        <time>2023-10-30T20:00:25Z</time>
      </trkpt>
      <trkpt lat="48.51748" lon="-3.40363">
        <ele>148</ele>
        <time>2023-10-30T20:02:49Z</time>
      </trkpt>
      <trkpt lat="48.51779" lon="-3.40287">
        <ele>142</ele>
        <time>2023-10-30T20:04:08Z</time>
      </trkpt>
      <trkpt lat="48.51787" lon="-3.4025">
        <ele>143</ele>
        <time>2023-10-30T20:04:42Z</time>
      </trkpt>
      <trkpt lat="48.51813" lon="-3.40172">
        <ele>143</ele>
        <time>2023-10-30T20:05:59Z</time>
      </trkpt>
      <trkpt lat="48.51817" lon="-3.40153">
        <ele>143</ele>
        <time>2023-10-30T20:06:17Z</time>
      </trkpt>
      <trkpt lat="48.51805" lon="-3.40126">
        <ele>145</ele>
        <time>2023-10-30T20:06:46Z</time>
      </trkpt>
      <trkpt lat="48.51772" lon="-3.40086">
        <ele>152</ele>
        <time>2023-10-30T20:07:42Z</time>
      </trkpt>
      <trkpt lat="48.51746" lon="-3.40034">
        <ele>153</ele>
        <time>2023-10-30T20:08:40Z</time>
      </trkpt>
      <trkpt lat="48.51742" lon="-3.40021">
        <ele>152</ele>
        <time>2023-10-30T20:08:52Z</time>
      </trkpt>
      <trkpt lat="48.51719" lon="-3.39984">
        <ele>155</ele>
        <time>2023-10-30T20:09:37Z</time>
      </trkpt>
      <trkpt lat="48.51677" lon="-3.39943">
        <ele>159</ele>
        <time>2023-10-30T20:10:44Z</time>
      </trkpt>
      <trkpt lat="48.51636" lon="-3.3993">
        <ele>162</ele>
        <time>2023-10-30T20:11:40Z</time>
      </trkpt>
      <trkpt lat="48.51607" lon="-3.39928">
        <ele>163</ele>
        <time>2023-10-30T20:12:19Z</time>
      </trkpt>
      <trkpt lat="48.51593" lon="-3.39923">
        <ele>164</ele>
        <time>2023-10-30T20:12:38Z</time>
      </trkpt>
      <trkpt lat="48.51588" lon="-3.39918">
        <ele>164</ele>
        <time>2023-10-30T20:12:46Z</time>
      </trkpt>
      <trkpt lat="48.51591" lon="-3.39855">
        <ele>164</ele>
        <time>2023-10-30T20:13:42Z</time>
      </trkpt>
      <trkpt lat="48.51603" lon="-3.39819">
        <ele>164</ele>
        <time>2023-10-30T20:14:17Z</time>
      </trkpt>
      <trkpt lat="48.51602" lon="-3.39814">
        <ele>164</ele>
        <time>2023-10-30T20:14:22Z</time>
      </trkpt>
      <trkpt lat="48.51613" lon="-3.39787">
        <ele>164</ele>
        <time>2023-10-30T20:14:50Z</time>
      </trkpt>
      <trkpt lat="48.51617" lon="-3.39766">
        <ele>165</ele>
        <time>2023-10-30T20:15:09Z</time>
      </trkpt>
      <trkpt lat="48.51591" lon="-3.39632">
        <ele>169</ele>
        <time>2023-10-30T20:17:13Z</time>
      </trkpt>
      <trkpt lat="48.51597" lon="-3.39593">
        <ele>169</ele>
        <time>2023-10-30T20:17:48Z</time>
      </trkpt>
      <trkpt lat="48.51593" lon="-3.39571">
        <ele>169</ele>
        <time>2023-10-30T20:18:08Z</time>
      </trkpt>
      <trkpt lat="48.51594" lon="-3.39549">
        <ele>170</ele>
        <time>2023-10-30T20:18:28Z</time>
      </trkpt>
      <trkpt lat="48.51604" lon="-3.39504">
        <ele>173</ele>
        <time>2023-10-30T20:19:10Z</time>
      </trkpt>
      <trkpt lat="48.51616" lon="-3.39479">
        <ele>174</ele>
        <time>2023-10-30T20:19:37Z</time>
      </trkpt>
      <trkpt lat="48.51632" lon="-3.394">
        <ele>177</ele>
        <time>2023-10-30T20:20:50Z</time>
      </trkpt>
      <trkpt lat="48.51635" lon="-3.3938">
        <ele>178</ele>
        <time>2023-10-30T20:21:08Z</time>
      </trkpt>
      <trkpt lat="48.5163" lon="-3.39359">
        <ele>179</ele>
        <time>2023-10-30T20:21:28Z</time>
      </trkpt>
      <trkpt lat="48.51631" lon="-3.39346">
        <ele>180</ele>
        <time>2023-10-30T20:21:39Z</time>
      </trkpt>
      <trkpt lat="48.51635" lon="-3.39357">
        <ele>179</ele>
        <time>2023-10-30T20:21:51Z</time>
      </trkpt>
      <trkpt lat="48.51632" lon="-3.3937">
        <ele>179</ele>
        <time>2023-10-30T20:22:03Z</time>
      </trkpt>
      <trkpt lat="48.51637" lon="-3.39354">
        <ele>179</ele>
        <time>2023-10-30T20:22:18Z</time>
      </trkpt>
      <trkpt lat="48.51664" lon="-3.39347">
        <ele>181</ele>
        <time>2023-10-30T20:22:55Z</time>
      </trkpt>
      <trkpt lat="48.5168" lon="-3.39334">
        <ele>181</ele>
        <time>2023-10-30T20:23:19Z</time>
      </trkpt>
      <trkpt lat="48.51717" lon="-3.39288">
        <ele>181</ele>
        <time>2023-10-30T20:24:23Z</time>
      </trkpt>
      <trkpt lat="48.51739" lon="-3.39243">
        <ele>183</ele>
        <time>2023-10-30T20:25:13Z</time>
      </trkpt>
      <trkpt lat="48.51731" lon="-3.3924">
        <ele>182</ele>
        <time>2023-10-30T20:25:24Z</time>
      </trkpt>
      <trkpt lat="48.51736" lon="-3.39234">
        <ele>183</ele>
        <time>2023-10-30T20:25:32Z</time>
      </trkpt>
      <trkpt lat="48.51756" lon="-3.39224">
        <ele>183</ele>
        <time>2023-10-30T20:26:00Z</time>
      </trkpt>
      <trkpt lat="48.51777" lon="-3.39224">
        <ele>183</ele>
        <time>2023-10-30T20:26:28Z</time>
      </trkpt>
      <trkpt lat="48.51788" lon="-3.39226">
        <ele>183</ele>
        <time>2023-10-30T20:26:43Z</time>
      </trkpt>
      <trkpt lat="48.51804" lon="-3.39233">
        <ele>182</ele>
        <time>2023-10-30T20:27:05Z</time>
      </trkpt>
      <trkpt lat="48.51832" lon="-3.39234">
        <ele>182</ele>
        <time>2023-10-30T20:27:43Z</time>
      </trkpt>
      <trkpt lat="48.5184" lon="-3.39243">
        <ele>181</ele>
        <time>2023-10-30T20:27:56Z</time>
      </trkpt>
      <trkpt lat="48.51853" lon="-3.39248">
        <ele>180</ele>
        <time>2023-10-30T20:28:14Z</time>
      </trkpt>
      <trkpt lat="48.51887" lon="-3.39249">
        <ele>178</ele>
        <time>2023-10-30T20:28:59Z</time>
      </trkpt>
      <trkpt lat="48.51953" lon="-3.39266">
        <ele>172</ele>
        <time>2023-10-30T20:30:29Z</time>
      </trkpt>
      <trkpt lat="48.51968" lon="-3.39273">
        <ele>170</ele>
        <time>2023-10-30T20:30:50Z</time>
      </trkpt>
      <trkpt lat="48.51987" lon="-3.39288">
        <ele>167</ele>
        <time>2023-10-30T20:31:18Z</time>
      </trkpt>
      <trkpt lat="48.52003" lon="-3.39303">
        <ele>164</ele>
        <time>2023-10-30T20:31:43Z</time>
      </trkpt>
      <trkpt lat="48.52022" lon="-3.39326">
        <ele>160</ele>
        <time>2023-10-30T20:32:16Z</time>
      </trkpt>
      <trkpt lat="48.52053" lon="-3.39374">
        <ele>155</ele>
        <time>2023-10-30T20:33:15Z</time>
      </trkpt>
      <trkpt lat="48.52075" lon="-3.39394">
        <ele>152</ele>
        <time>2023-10-30T20:33:49Z</time>
      </trkpt>
      <trkpt lat="48.5211" lon="-3.39434">
        <ele>146</ele>
        <time>2023-10-30T20:34:48Z</time>
      </trkpt>
      <trkpt lat="48.52114" lon="-3.3945">
        <ele>145</ele>
        <time>2023-10-30T20:35:03Z</time>
      </trkpt>
      <trkpt lat="48.52136" lon="-3.39483">
        <ele>142</ele>
        <time>2023-10-30T20:35:44Z</time>
      </trkpt>
      <trkpt lat="48.52137" lon="-3.39495">
        <ele>142</ele>
        <time>2023-10-30T20:35:55Z</time>
      </trkpt>
      <trkpt lat="48.52175" lon="-3.3953">
        <ele>135</ele>
        <time>2023-10-30T20:36:54Z</time>
      </trkpt>
      <trkpt lat="48.52183" lon="-3.39546">
        <ele>133</ele>
        <time>2023-10-30T20:37:12Z</time>
      </trkpt>
      <trkpt lat="48.52195" lon="-3.39555">
        <ele>130</ele>
        <time>2023-10-30T20:37:30Z</time>
      </trkpt>
      <trkpt lat="48.52198" lon="-3.39563">
        <ele>129</ele>
        <time>2023-10-30T20:37:38Z</time>
      </trkpt>
      <trkpt lat="48.52208" lon="-3.39565">
        <ele>127</ele>
        <time>2023-10-30T20:37:52Z</time>
      </trkpt>
      <trkpt lat="48.5222" lon="-3.39538">
        <ele>123</ele>
        <time>2023-10-30T20:38:20Z</time>
      </trkpt>
      <trkpt lat="48.52224" lon="-3.39522">
        <ele>122</ele>
        <time>2023-10-30T20:38:35Z</time>
      </trkpt>
      <trkpt lat="48.52227" lon="-3.39485">
        <ele>121</ele>
        <time>2023-10-30T20:39:08Z</time>
      </trkpt>
      <trkpt lat="48.52222" lon="-3.39462">
        <ele>122</ele>
        <time>2023-10-30T20:39:30Z</time>
      </trkpt>
      <trkpt lat="48.52227" lon="-3.39457">
        <ele>121</ele>
        <time>2023-10-30T20:39:38Z</time>
      </trkpt>
      <trkpt lat="48.52213" lon="-3.3943">
        <ele>124</ele>
        <time>2023-10-30T20:40:08Z</time>
      </trkpt>
      <trkpt lat="48.52178" lon="-3.39393">
        <ele>131</ele>
        <time>2023-10-30T20:41:05Z</time>
      </trkpt>
      <trkpt lat="48.52155" lon="-3.39352">
        <ele>134</ele>
        <time>2023-10-30T20:41:53Z</time>
      </trkpt>
      <trkpt lat="48.52148" lon="-3.39332">
        <ele>134</ele>
        <time>2023-10-30T20:42:13Z</time>
      </trkpt>
      <trkpt lat="48.52143" lon="-3.39306">
        <ele>134</ele>
        <time>2023-10-30T20:42:37Z</time>
      </trkpt>
      <trkpt lat="48.52133" lon="-3.39294">
        <ele>135</ele>
        <time>2023-10-30T20:42:54Z</time>
      </trkpt>
      <trkpt lat="48.52105" lon="-3.39209">
        <ele>137</ele>
        <time>2023-10-30T20:44:18Z</time>
      </trkpt>
      <trkpt lat="48.52081" lon="-3.3916">
        <ele>140</ele>
        <time>2023-10-30T20:45:11Z</time>
      </trkpt>
      <trkpt lat="48.52079" lon="-3.39121">
        <ele>138</ele>
        <time>2023-10-30T20:45:46Z</time>
      </trkpt>
      <trkpt lat="48.52074" lon="-3.39095">
        <ele>137</ele>
        <time>2023-10-30T20:46:10Z</time>
      </trkpt>
      <trkpt lat="48.52074" lon="-3.3907">
        <ele>137</ele>
        <time>2023-10-30T20:46:32Z</time>
      </trkpt>
      <trkpt lat="48.52059" lon="-3.3901">
        <ele>140</ele>
        <time>2023-10-30T20:47:29Z</time>
      </trkpt>
      <trkpt lat="48.52028" lon="-3.38946">
        <ele>148</ele>
        <time>2023-10-30T20:48:39Z</time>
      </trkpt>
      <trkpt lat="48.52013" lon="-3.38939">
        <ele>149</ele>
        <time>2023-10-30T20:49:00Z</time>
      </trkpt>
      <trkpt lat="48.51953" lon="-3.38839">
        <ele>154</ele>
        <time>2023-10-30T20:50:59Z</time>
      </trkpt>
      <trkpt lat="48.51946" lon="-3.38819">
        <ele>154</ele>
        <time>2023-10-30T20:51:19Z</time>
      </trkpt>
      <trkpt lat="48.51904" lon="-3.38798">
        <ele>156</ele>
        <time>2023-10-30T20:52:18Z</time>
      </trkpt>
      <trkpt lat="48.51885" lon="-3.38793">
        <ele>158</ele>
        <time>2023-10-30T20:52:44Z</time>
      </trkpt>
      <trkpt lat="48.51857" lon="-3.38792">
        <ele>160</ele>
        <time>2023-10-30T20:53:21Z</time>
      </trkpt>
      <trkpt lat="48.51836" lon="-3.38787">
        <ele>162</ele>
        <time>2023-10-30T20:53:49Z</time>
      </trkpt>
      <trkpt lat="48.51815" lon="-3.38791">
        <ele>164</ele>
        <time>2023-10-30T20:54:18Z</time>
      </trkpt>
      <trkpt lat="48.51806" lon="-3.3879">
        <ele>165</ele>
        <time>2023-10-30T20:54:30Z</time>
      </trkpt>
      <trkpt lat="48.51806" lon="-3.38786">
        <ele>164</ele>
        <time>2023-10-30T20:54:33Z</time>
      </trkpt>
      <trkpt lat="48.518" lon="-3.38785">
        <ele>164</ele>
        <time>2023-10-30T20:54:41Z</time>
      </trkpt>
      <trkpt lat="48.51769" lon="-3.38789">
        <ele>168</ele>
        <time>2023-10-30T20:55:23Z</time>
      </trkpt>
      <trkpt lat="48.51758" lon="-3.38785">
        <ele>168</ele>
        <time>2023-10-30T20:55:38Z</time>
      </trkpt>
      <trkpt lat="48.51756" lon="-3.38787">
        <ele>168</ele>
        <time>2023-10-30T20:55:41Z</time>
      </trkpt>
      <trkpt lat="48.5173" lon="-3.38771">
        <ele>168</ele>
        <time>2023-10-30T20:56:19Z</time>
      </trkpt>
      <trkpt lat="48.51723" lon="-3.38769">
        <ele>169</ele>
        <time>2023-10-30T20:56:28Z</time>
      </trkpt>
      <trkpt lat="48.51685" lon="-3.3873">
        <ele>170</ele>
        <time>2023-10-30T20:57:29Z</time>
      </trkpt>
      <trkpt lat="48.51668" lon="-3.38708">
        <ele>169</ele>
        <time>2023-10-30T20:57:59Z</time>
      </trkpt>
      <trkpt lat="48.51638" lon="-3.38686">
        <ele>167</ele>
        <time>2023-10-30T20:58:44Z</time>
      </trkpt>
      <trkpt lat="48.51617" lon="-3.38684">
        <ele>168</ele>
        <time>2023-10-30T20:59:12Z</time>
      </trkpt>
      <trkpt lat="48.51617" lon="-3.38669">
        <ele>166</ele>
        <time>2023-10-30T20:59:25Z</time>
      </trkpt>
      <trkpt lat="48.51605" lon="-3.38597">
        <ele>163</ele>
        <time>2023-10-30T21:00:31Z</time>
      </trkpt>
      <trkpt lat="48.51602" lon="-3.38558">
        <ele>162</ele>
        <time>2023-10-30T21:01:06Z</time>
      </trkpt>
      <trkpt lat="48.51597" lon="-3.3854">
        <ele>161</ele>
        <time>2023-10-30T21:01:23Z</time>
      </trkpt>
      <trkpt lat="48.51577" lon="-3.3841">
        <ele>160</ele>
        <time>2023-10-30T21:03:21Z</time>
      </trkpt>
      <trkpt lat="48.51565" lon="-3.38299">
        <ele>162</ele>
        <time>2023-10-30T21:05:00Z</time>
      </trkpt>
      <trkpt lat="48.51554" lon="-3.38243">
        <ele>163</ele>
        <time>2023-10-30T21:05:52Z</time>
      </trkpt>
      <trkpt lat="48.51543" lon="-3.38159">
        <ele>166</ele>
        <time>2023-10-30T21:07:08Z</time>
      </trkpt>
      <trkpt lat="48.51527" lon="-3.38094">
        <ele>169</ele>
        <time>2023-10-30T21:08:09Z</time>
      </trkpt>
      <trkpt lat="48.51521" lon="-3.38026">
        <ele>170</ele>
        <time>2023-10-30T21:09:09Z</time>
      </trkpt>
      <trkpt lat="48.51489" lon="-3.37978">
        <ele>175</ele>
        <time>2023-10-30T21:10:10Z</time>
      </trkpt>
      <trkpt lat="48.51485" lon="-3.37965">
        <ele>176</ele>
        <time>2023-10-30T21:10:22Z</time>
      </trkpt>
      <trkpt lat="48.51459" lon="-3.37924">
        <ele>179</ele>
        <time>2023-10-30T21:11:13Z</time>
      </trkpt>
      <trkpt lat="48.51454" lon="-3.37906">
        <ele>179</ele>
        <time>2023-10-30T21:11:30Z</time>
      </trkpt>
      <trkpt lat="48.51443" lon="-3.37887">
        <ele>180</ele>
        <time>2023-10-30T21:11:52Z</time>
      </trkpt>
      <trkpt lat="48.51424" lon="-3.37871">
        <ele>181</ele>
        <time>2023-10-30T21:12:21Z</time>
      </trkpt>
      <trkpt lat="48.51403" lon="-3.37845">
        <ele>183</ele>
        <time>2023-10-30T21:12:57Z</time>
      </trkpt>
      <trkpt lat="48.51393" lon="-3.37836">
        <ele>184</ele>
        <time>2023-10-30T21:13:13Z</time>
      </trkpt>
      <trkpt lat="48.51388" lon="-3.37822">
        <ele>185</ele>
        <time>2023-10-30T21:13:27Z</time>
      </trkpt>
      <trkpt lat="48.51385" lon="-3.37788">
        <ele>186</ele>
        <time>2023-10-30T21:13:57Z</time>
      </trkpt>
      <trkpt lat="48.5138" lon="-3.37768">
        <ele>187</ele>
        <time>2023-10-30T21:14:16Z</time>
      </trkpt>
      <trkpt lat="48.51328" lon="-3.37743">
        <ele>190</ele>
        <time>2023-10-30T21:15:29Z</time>
      </trkpt>
      <trkpt lat="48.51283" lon="-3.37735">
        <ele>192</ele>
        <time>2023-10-30T21:16:29Z</time>
      </trkpt>
      <trkpt lat="48.51263" lon="-3.37726">
        <ele>193</ele>
        <time>2023-10-30T21:16:57Z</time>
      </trkpt>
      <trkpt lat="48.5121" lon="-3.37721">
        <ele>195</ele>
        <time>2023-10-30T21:18:08Z</time>
      </trkpt>
      <trkpt lat="48.51178" lon="-3.37712">
        <ele>196</ele>
        <time>2023-10-30T21:18:52Z</time>
      </trkpt>
      <trkpt lat="48.51168" lon="-3.37717">
        <ele>196</ele>
        <time>2023-10-30T21:19:06Z</time>
      </trkpt>
      <trkpt lat="48.51161" lon="-3.37713">
        <ele>196</ele>
        <time>2023-10-30T21:19:16Z</time>
      </trkpt>
      <trkpt lat="48.51103" lon="-3.37708">
        <ele>197</ele>
        <time>2023-10-30T21:20:33Z</time>
      </trkpt>
      <trkpt lat="48.51083" lon="-3.37703">
        <ele>197</ele>
        <time>2023-10-30T21:21:00Z</time>
      </trkpt>
      <trkpt lat="48.51063" lon="-3.37694">
        <ele>198</ele>
        <time>2023-10-30T21:21:28Z</time>
      </trkpt>
      <trkpt lat="48.51054" lon="-3.37685">
        <ele>199</ele>
        <time>2023-10-30T21:21:42Z</time>
      </trkpt>
      <trkpt lat="48.51051" lon="-3.37677">
        <ele>199</ele>
        <time>2023-10-30T21:21:51Z</time>
      </trkpt>
      <trkpt lat="48.51058" lon="-3.37669">
        <ele>199</ele>
        <time>2023-10-30T21:22:02Z</time>
      </trkpt>
      <trkpt lat="48.51049" lon="-3.377">
        <ele>199</ele>
        <time>2023-10-30T21:22:32Z</time>
      </trkpt>
      <trkpt lat="48.51057" lon="-3.37678">
        <ele>199</ele>
        <time>2023-10-30T21:22:54Z</time>
      </trkpt>
      <trkpt lat="48.51053" lon="-3.37682">
        <ele>199</ele>
        <time>2023-10-30T21:23:01Z</time>
      </trkpt>
      <trkpt lat="48.51048" lon="-3.3768">
        <ele>199</ele>
        <time>2023-10-30T21:23:08Z</time>
      </trkpt>
      <trkpt lat="48.51069" lon="-3.3769">
        <ele>198</ele>
        <time>2023-10-30T21:23:37Z</time>
      </trkpt>
      <trkpt lat="48.51101" lon="-3.377">
        <ele>197</ele>
        <time>2023-10-30T21:24:21Z</time>
      </trkpt>
      <trkpt lat="48.51115" lon="-3.37702">
        <ele>197</ele>
        <time>2023-10-30T21:24:39Z</time>
      </trkpt>
      <trkpt lat="48.51127" lon="-3.37654">
        <ele>200</ele>
        <time>2023-10-30T21:25:25Z</time>
      </trkpt>
      <trkpt lat="48.51141" lon="-3.37615">
        <ele>205</ele>
        <time>2023-10-30T21:26:04Z</time>
      </trkpt>
      <trkpt lat="48.51149" lon="-3.37575">
        <ele>210</ele>
        <time>2023-10-30T21:26:41Z</time>
      </trkpt>
      <trkpt lat="48.51138" lon="-3.37551">
        <ele>211</ele>
        <time>2023-10-30T21:27:07Z</time>
      </trkpt>
      <trkpt lat="48.5112" lon="-3.37541">
        <ele>212</ele>
        <time>2023-10-30T21:27:32Z</time>
      </trkpt>
      <trkpt lat="48.51102" lon="-3.37537">
        <ele>212</ele>
        <time>2023-10-30T21:27:57Z</time>
      </trkpt>
      <trkpt lat="48.51085" lon="-3.3753">
        <ele>213</ele>
        <time>2023-10-30T21:28:20Z</time>
      </trkpt>
      <trkpt lat="48.51071" lon="-3.3746">
        <ele>217</ele>
        <time>2023-10-30T21:29:25Z</time>
      </trkpt>
      <trkpt lat="48.51066" lon="-3.37404">
        <ele>220</ele>
        <time>2023-10-30T21:30:15Z</time>
      </trkpt>
      <trkpt lat="48.51063" lon="-3.37314">
        <ele>223</ele>
        <time>2023-10-30T21:31:34Z</time>
      </trkpt>
      <trkpt lat="48.51057" lon="-3.37275">
        <ele>224</ele>
        <time>2023-10-30T21:32:10Z</time>
      </trkpt>
      <trkpt lat="48.51054" lon="-3.37207">
        <ele>230</ele>
        <time>2023-10-30T21:33:10Z</time>
      </trkpt>
      <trkpt lat="48.51065" lon="-3.37152">
        <ele>236</ele>
        <time>2023-10-30T21:34:01Z</time>
      </trkpt>
      <trkpt lat="48.51122" lon="-3.36948">
        <ele>248</ele>
        <time>2023-10-30T21:37:17Z</time>
      </trkpt>
      <trkpt lat="48.51131" lon="-3.36897">
        <ele>250</ele>
        <time>2023-10-30T21:38:03Z</time>
      </trkpt>
      <trkpt lat="48.51147" lon="-3.36852">
        <ele>252</ele>
        <time>2023-10-30T21:38:48Z</time>
      </trkpt>
      <trkpt lat="48.51185" lon="-3.36711">
        <ele>261</ele>
        <time>2023-10-30T21:41:03Z</time>
      </trkpt>
      <trkpt lat="48.51194" lon="-3.36658">
        <ele>264</ele>
        <time>2023-10-30T21:41:51Z</time>
      </trkpt>
      <trkpt lat="48.51212" lon="-3.36598">
        <ele>265</ele>
        <time>2023-10-30T21:42:50Z</time>
      </trkpt>
      <trkpt lat="48.51215" lon="-3.36575">
        <ele>265</ele>
        <time>2023-10-30T21:43:10Z</time>
      </trkpt>
      <trkpt lat="48.51212" lon="-3.36391">
        <ele>254</ele>
        <time>2023-10-30T21:45:53Z</time>
      </trkpt>
      <trkpt lat="48.51217" lon="-3.36358">
        <ele>251</ele>
        <time>2023-10-30T21:46:23Z</time>
      </trkpt>
      <trkpt lat="48.51212" lon="-3.36292">
        <ele>245</ele>
        <time>2023-10-30T21:47:22Z</time>
      </trkpt>
      <trkpt lat="48.51214" lon="-3.36114">
        <ele>228</ele>
        <time>2023-10-30T21:49:59Z</time>
      </trkpt>
      <trkpt lat="48.51211" lon="-3.36069">
        <ele>222</ele>
        <time>2023-10-30T21:50:39Z</time>
      </trkpt>
      <trkpt lat="48.51213" lon="-3.36041">
        <ele>219</ele>
        <time>2023-10-30T21:51:04Z</time>
      </trkpt>
      <trkpt lat="48.51211" lon="-3.36004">
        <ele>215</ele>
        <time>2023-10-30T21:51:37Z</time>
      </trkpt>
      <trkpt lat="48.5122" lon="-3.35951">
        <ele>207</ele>
        <time>2023-10-30T21:52:25Z</time>
      </trkpt>
      <trkpt lat="48.5123" lon="-3.35925">
        <ele>203</ele>
        <time>2023-10-30T21:52:52Z</time>
      </trkpt>
      <trkpt lat="48.51231" lon="-3.35904">
        <ele>200</ele>
        <time>2023-10-30T21:53:10Z</time>
      </trkpt>
      <trkpt lat="48.51228" lon="-3.3588">
        <ele>198</ele>
        <time>2023-10-30T21:53:32Z</time>
      </trkpt>
      <trkpt lat="48.51242" lon="-3.35858">
        <ele>194</ele>
        <time>2023-10-30T21:53:59Z</time>
      </trkpt>
      <trkpt lat="48.51249" lon="-3.35825">
        <ele>190</ele>
        <time>2023-10-30T21:54:30Z</time>
      </trkpt>
      <trkpt lat="48.51248" lon="-3.35777">
        <ele>186</ele>
        <time>2023-10-30T21:55:12Z</time>
      </trkpt>
      <trkpt lat="48.5125" lon="-3.35759">
        <ele>185</ele>
        <time>2023-10-30T21:55:28Z</time>
      </trkpt>
      <trkpt lat="48.51247" lon="-3.35714">
        <ele>182</ele>
        <time>2023-10-30T21:56:08Z</time>
      </trkpt>
      <trkpt lat="48.51264" lon="-3.35646">
        <ele>177</ele>
        <time>2023-10-30T21:57:12Z</time>
      </trkpt>
      <trkpt lat="48.51263" lon="-3.35615">
        <ele>176</ele>
        <time>2023-10-30T21:57:40Z</time>
      </trkpt>
      <trkpt lat="48.51258" lon="-3.35597">
        <ele>176</ele>
        <time>2023-10-30T21:57:57Z</time>
      </trkpt>
      <trkpt lat="48.51237" lon="-3.35544">
        <ele>171</ele>
        <time>2023-10-30T21:58:52Z</time>
      </trkpt>
      <trkpt lat="48.51231" lon="-3.35518">
        <ele>169</ele>
        <time>2023-10-30T21:59:16Z</time>
      </trkpt>
      <trkpt lat="48.51222" lon="-3.35493">
        <ele>166</ele>
        <time>2023-10-30T21:59:41Z</time>
      </trkpt>
      <trkpt lat="48.51215" lon="-3.35486">
        <ele>165</ele>
        <time>2023-10-30T21:59:52Z</time>
      </trkpt>
      <trkpt lat="48.51207" lon="-3.3547">
        <ele>163</ele>
        <time>2023-10-30T22:00:10Z</time>
      </trkpt>
      <trkpt lat="48.51208" lon="-3.35445">
        <ele>160</ele>
        <time>2023-10-30T22:00:32Z</time>
      </trkpt>
      <trkpt lat="48.51212" lon="-3.35432">
        <ele>159</ele>
        <time>2023-10-30T22:00:45Z</time>
      </trkpt>
      <trkpt lat="48.5123" lon="-3.35429">
        <ele>158</ele>
        <time>2023-10-30T22:01:09Z</time>
      </trkpt>
      <trkpt lat="48.51232" lon="-3.35419">
        <ele>157</ele>
        <time>2023-10-30T22:01:18Z</time>
      </trkpt>
      <trkpt lat="48.51234" lon="-3.35366">
        <ele>152</ele>
        <time>2023-10-30T22:02:05Z</time>
      </trkpt>
      <trkpt lat="48.51226" lon="-3.35348">
        <ele>151</ele>
        <time>2023-10-30T22:02:24Z</time>
      </trkpt>
      <trkpt lat="48.51225" lon="-3.35306">
        <ele>149</ele>
        <time>2023-10-30T22:03:01Z</time>
      </trkpt>
      <trkpt lat="48.5123" lon="-3.35289">
        <ele>149</ele>
        <time>2023-10-30T22:03:18Z</time>
      </trkpt>
      <trkpt lat="48.51237" lon="-3.35279">
        <ele>149</ele>
        <time>2023-10-30T22:03:31Z</time>
      </trkpt>
      <trkpt lat="48.51249" lon="-3.35276">
        <ele>148</ele>
        <time>2023-10-30T22:03:47Z</time>
      </trkpt>
      <trkpt lat="48.51302" lon="-3.35283">
        <ele>147</ele>
        <time>2023-10-30T22:04:58Z</time>
      </trkpt>
      <trkpt lat="48.51423" lon="-3.35309">
        <ele>145</ele>
        <time>2023-10-30T22:07:41Z</time>
      </trkpt>
      <trkpt lat="48.51481" lon="-3.35325">
        <ele>143</ele>
        <time>2023-10-30T22:09:00Z</time>
      </trkpt>
      <trkpt lat="48.51573" lon="-3.35361">
        <ele>142</ele>
        <time>2023-10-30T22:11:07Z</time>
      </trkpt>
      <trkpt lat="48.51702" lon="-3.35397">
        <ele>142</ele>
        <time>2023-10-30T22:14:02Z</time>
      </trkpt>
      <trkpt lat="48.5175" lon="-3.35415">
        <ele>141</ele>
        <time>2023-10-30T22:15:08Z</time>
      </trkpt>
      <trkpt lat="48.51788" lon="-3.35423">
        <ele>139</ele>
        <time>2023-10-30T22:15:59Z</time>
      </trkpt>
      <trkpt lat="48.51826" lon="-3.35437">
        <ele>138</ele>
        <time>2023-10-30T22:16:51Z</time>
      </trkpt>
      <trkpt lat="48.51883" lon="-3.3545">
        <ele>138</ele>
        <time>2023-10-30T22:18:08Z</time>
      </trkpt>
      <trkpt lat="48.51905" lon="-3.35462">
        <ele>138</ele>
        <time>2023-10-30T22:18:39Z</time>
      </trkpt>
      <trkpt lat="48.51914" lon="-3.3548">
        <ele>138</ele>
        <time>2023-10-30T22:18:59Z</time>
      </trkpt>
      <trkpt lat="48.51915" lon="-3.35515">
        <ele>138</ele>
        <time>2023-10-30T22:19:30Z</time>
      </trkpt>
      <trkpt lat="48.51914" lon="-3.35541">
        <ele>139</ele>
        <time>2023-10-30T22:19:53Z</time>
      </trkpt>
      <trkpt lat="48.51907" lon="-3.35575">
        <ele>140</ele>
        <time>2023-10-30T22:20:25Z</time>
      </trkpt>
      <trkpt lat="48.51903" lon="-3.35622">
        <ele>143</ele>
        <time>2023-10-30T22:21:07Z</time>
      </trkpt>
      <trkpt lat="48.51912" lon="-3.3564">
        <ele>144</ele>
        <time>2023-10-30T22:21:26Z</time>
      </trkpt>
      <trkpt lat="48.51912" lon="-3.35658">
        <ele>145</ele>
        <time>2023-10-30T22:21:42Z</time>
      </trkpt>
      <trkpt lat="48.51926" lon="-3.35727">
        <ele>146</ele>
        <time>2023-10-30T22:22:46Z</time>
      </trkpt>
      <trkpt lat="48.5196" lon="-3.35786">
        <ele>146</ele>
        <time>2023-10-30T22:23:55Z</time>
      </trkpt>
      <trkpt lat="48.5197" lon="-3.35817">
        <ele>147</ele>
        <time>2023-10-30T22:24:26Z</time>
      </trkpt>
      <trkpt lat="48.51976" lon="-3.35845">
        <ele>148</ele>
        <time>2023-10-30T22:24:52Z</time>
      </trkpt>
      <trkpt lat="48.51977" lon="-3.35863">
        <ele>149</ele>
        <time>2023-10-30T22:25:08Z</time>
      </trkpt>
      <trkpt lat="48.51973" lon="-3.35884">
        <ele>150</ele>
        <time>2023-10-30T22:25:27Z</time>
      </trkpt>
      <trkpt lat="48.51977" lon="-3.35898">
        <ele>150</ele>
        <time>2023-10-30T22:25:41Z</time>
      </trkpt>
      <trkpt lat="48.5199" lon="-3.3592">
        <ele>151</ele>
        <time>2023-10-30T22:26:07Z</time>
      </trkpt>
      <trkpt lat="48.52074" lon="-3.35964">
        <ele>145</ele>
        <time>2023-10-30T22:28:05Z</time>
      </trkpt>
      <trkpt lat="48.52081" lon="-3.35967">
        <ele>145</ele>
        <time>2023-10-30T22:28:15Z</time>
      </trkpt>
      <trkpt lat="48.52088" lon="-3.35966">
        <ele>144</ele>
        <time>2023-10-30T22:28:24Z</time>
      </trkpt>
      <trkpt lat="48.52094" lon="-3.3596">
        <ele>144</ele>
        <time>2023-10-30T22:28:34Z</time>
      </trkpt>
      <trkpt lat="48.52087" lon="-3.3595">
        <ele>144</ele>
        <time>2023-10-30T22:28:47Z</time>
      </trkpt>
      <trkpt lat="48.52079" lon="-3.35873">
        <ele>143</ele>
        <time>2023-10-30T22:29:56Z</time>
      </trkpt>
      <trkpt lat="48.5208" lon="-3.35832">
        <ele>142</ele>
        <time>2023-10-30T22:30:32Z</time>
      </trkpt>
      <trkpt lat="48.52075" lon="-3.35782">
        <ele>141</ele>
        <time>2023-10-30T22:31:17Z</time>
      </trkpt>
      <trkpt lat="48.5208" lon="-3.35723">
        <ele>139</ele>
        <time>2023-10-30T22:32:09Z</time>
      </trkpt>
      <trkpt lat="48.52088" lon="-3.35692">
        <ele>138</ele>
        <time>2023-10-30T22:32:39Z</time>
      </trkpt>
      <trkpt lat="48.52095" lon="-3.35684">
        <ele>138</ele>
        <time>2023-10-30T22:32:50Z</time>
      </trkpt>
      <trkpt lat="48.52117" lon="-3.35677">
        <ele>137</ele>
        <time>2023-10-30T22:33:20Z</time>
      </trkpt>
      <trkpt lat="48.5213" lon="-3.35677">
        <ele>137</ele>
        <time>2023-10-30T22:33:38Z</time>
      </trkpt>
      <trkpt lat="48.52199" lon="-3.35748">
        <ele>135</ele>
        <time>2023-10-30T22:35:29Z</time>
      </trkpt>
      <trkpt lat="48.52204" lon="-3.35766">
        <ele>135</ele>
        <time>2023-10-30T22:35:46Z</time>
      </trkpt>
      <trkpt lat="48.52202" lon="-3.35795">
        <ele>135</ele>
        <time>2023-10-30T22:36:12Z</time>
      </trkpt>
      <trkpt lat="48.52196" lon="-3.35817">
        <ele>136</ele>
        <time>2023-10-30T22:36:33Z</time>
      </trkpt>
      <trkpt lat="48.5219" lon="-3.35873">
        <ele>137</ele>
        <time>2023-10-30T22:37:23Z</time>
      </trkpt>
      <trkpt lat="48.52196" lon="-3.359">
        <ele>138</ele>
        <time>2023-10-30T22:37:48Z</time>
      </trkpt>
      <trkpt lat="48.52245" lon="-3.35966">
        <ele>139</ele>
        <time>2023-10-30T22:39:16Z</time>
      </trkpt>
      <trkpt lat="48.52267" lon="-3.3599">
        <ele>139</ele>
        <time>2023-10-30T22:39:52Z</time>
      </trkpt>
      <trkpt lat="48.52316" lon="-3.35989">
        <ele>140</ele>
        <time>2023-10-30T22:40:58Z</time>
      </trkpt>
      <trkpt lat="48.52375" lon="-3.35967">
        <ele>140</ele>
        <time>2023-10-30T22:42:19Z</time>
      </trkpt>
      <trkpt lat="48.52398" lon="-3.35954">
        <ele>138</ele>
        <time>2023-10-30T22:42:52Z</time>
      </trkpt>
      <trkpt lat="48.52421" lon="-3.35948">
        <ele>138</ele>
        <time>2023-10-30T22:43:23Z</time>
      </trkpt>
      <trkpt lat="48.52431" lon="-3.35942">
        <ele>137</ele>
        <time>2023-10-30T22:43:37Z</time>
      </trkpt>
      <trkpt lat="48.5244" lon="-3.35942">
        <ele>138</ele>
        <time>2023-10-30T22:43:49Z</time>
      </trkpt>
      <trkpt lat="48.52452" lon="-3.35946">
        <ele>139</ele>
        <time>2023-10-30T22:44:06Z</time>
      </trkpt>
      <trkpt lat="48.52465" lon="-3.35939">
        <ele>138</ele>
        <time>2023-10-30T22:44:24Z</time>
      </trkpt>
      <trkpt lat="48.52496" lon="-3.35935">
        <ele>139</ele>
        <time>2023-10-30T22:45:05Z</time>
      </trkpt>
      <trkpt lat="48.52536" lon="-3.35925">
        <ele>136</ele>
        <time>2023-10-30T22:46:00Z</time>
      </trkpt>
      <trkpt lat="48.52567" lon="-3.3593">
        <ele>136</ele>
        <time>2023-10-30T22:46:41Z</time>
      </trkpt>
      <trkpt lat="48.52596" lon="-3.35963">
        <ele>137</ele>
        <time>2023-10-30T22:47:30Z</time>
      </trkpt>
      <trkpt lat="48.52601" lon="-3.35981">
        <ele>138</ele>
        <time>2023-10-30T22:47:47Z</time>
      </trkpt>
      <trkpt lat="48.52595" lon="-3.36059">
        <ele>138</ele>
        <time>2023-10-30T22:48:56Z</time>
      </trkpt>
      <trkpt lat="48.52596" lon="-3.36094">
        <ele>138</ele>
        <time>2023-10-30T22:49:27Z</time>
      </trkpt>
      <trkpt lat="48.52592" lon="-3.36113">
        <ele>138</ele>
        <time>2023-10-30T22:49:45Z</time>
      </trkpt>
      <trkpt lat="48.52584" lon="-3.36129">
        <ele>139</ele>
        <time>2023-10-30T22:50:03Z</time>
      </trkpt>
      <trkpt lat="48.52569" lon="-3.36187">
        <ele>143</ele>
        <time>2023-10-30T22:50:58Z</time>
      </trkpt>
      <trkpt lat="48.52566" lon="-3.36213">
        <ele>144</ele>
        <time>2023-10-30T22:51:21Z</time>
      </trkpt>
      <trkpt lat="48.52568" lon="-3.36252">
        <ele>144</ele>
        <time>2023-10-30T22:51:55Z</time>
      </trkpt>
      <trkpt lat="48.52575" lon="-3.36277">
        <ele>142</ele>
        <time>2023-10-30T22:52:19Z</time>
      </trkpt>
      <trkpt lat="48.52585" lon="-3.36293">
        <ele>139</ele>
        <time>2023-10-30T22:52:39Z</time>
      </trkpt>
      <trkpt lat="48.52611" lon="-3.36325">
        <ele>135</ele>
        <time>2023-10-30T22:53:24Z</time>
      </trkpt>
      <trkpt lat="48.52622" lon="-3.36349">
        <ele>134</ele>
        <time>2023-10-30T22:53:49Z</time>
      </trkpt>
      <trkpt lat="48.52642" lon="-3.36413">
        <ele>133</ele>
        <time>2023-10-30T22:54:52Z</time>
      </trkpt>
      <trkpt lat="48.52642" lon="-3.36444">
        <ele>133</ele>
        <time>2023-10-30T22:55:19Z</time>
      </trkpt>
      <trkpt lat="48.52628" lon="-3.36469">
        <ele>133</ele>
        <time>2023-10-30T22:55:48Z</time>
      </trkpt>
      <trkpt lat="48.52605" lon="-3.365">
        <ele>135</ele>
        <time>2023-10-30T22:56:29Z</time>
      </trkpt>
      <trkpt lat="48.52585" lon="-3.36521">
        <ele>137</ele>
        <time>2023-10-30T22:57:02Z</time>
      </trkpt>
      <trkpt lat="48.52579" lon="-3.36532">
        <ele>138</ele>
        <time>2023-10-30T22:57:15Z</time>
      </trkpt>
      <trkpt lat="48.52551" lon="-3.36611">
        <ele>144</ele>
        <time>2023-10-30T22:58:34Z</time>
      </trkpt>
      <trkpt lat="48.52549" lon="-3.36682">
        <ele>147</ele>
        <time>2023-10-30T22:59:37Z</time>
      </trkpt>
      <trkpt lat="48.52561" lon="-3.36736">
        <ele>150</ele>
        <time>2023-10-30T23:00:27Z</time>
      </trkpt>
      <trkpt lat="48.52566" lon="-3.36797">
        <ele>154</ele>
        <time>2023-10-30T23:01:21Z</time>
      </trkpt>
      <trkpt lat="48.52566" lon="-3.36836">
        <ele>157</ele>
        <time>2023-10-30T23:01:56Z</time>
      </trkpt>
      <trkpt lat="48.52556" lon="-3.36871">
        <ele>160</ele>
        <time>2023-10-30T23:02:29Z</time>
      </trkpt>
      <trkpt lat="48.52541" lon="-3.36911">
        <ele>165</ele>
        <time>2023-10-30T23:03:10Z</time>
      </trkpt>
      <trkpt lat="48.52515" lon="-3.36966">
        <ele>172</ele>
        <time>2023-10-30T23:04:10Z</time>
      </trkpt>
      <trkpt lat="48.52511" lon="-3.37008">
        <ele>176</ele>
        <time>2023-10-30T23:04:47Z</time>
      </trkpt>
      <trkpt lat="48.52518" lon="-3.37052">
        <ele>179</ele>
        <time>2023-10-30T23:05:27Z</time>
      </trkpt>
      <trkpt lat="48.52496" lon="-3.3714">
        <ele>186</ele>
        <time>2023-10-30T23:06:50Z</time>
      </trkpt>
      <trkpt lat="48.52492" lon="-3.37165">
        <ele>188</ele>
        <time>2023-10-30T23:07:13Z</time>
      </trkpt>
      <trkpt lat="48.52505" lon="-3.37194">
        <ele>189</ele>
        <time>2023-10-30T23:07:44Z</time>
      </trkpt>
      <trkpt lat="48.52527" lon="-3.37233">
        <ele>188</ele>
        <time>2023-10-30T23:08:29Z</time>
      </trkpt>
      <trkpt lat="48.52549" lon="-3.37289">
        <ele>188</ele>
        <time>2023-10-30T23:09:27Z</time>
      </trkpt>
      <trkpt lat="48.52569" lon="-3.3741">
        <ele>191</ele>
        <time>2023-10-30T23:11:17Z</time>
      </trkpt>
      <trkpt lat="48.52585" lon="-3.37436">
        <ele>190</ele>
        <time>2023-10-30T23:11:48Z</time>
      </trkpt>
      <trkpt lat="48.52591" lon="-3.37441">
        <ele>190</ele>
        <time>2023-10-30T23:11:58Z</time>
      </trkpt>
      <trkpt lat="48.52609" lon="-3.37449">
        <ele>188</ele>
        <time>2023-10-30T23:12:23Z</time>
      </trkpt>
      <trkpt lat="48.52651" lon="-3.37462">
        <ele>182</ele>
        <time>2023-10-30T23:13:20Z</time>
      </trkpt>
      <trkpt lat="48.5269" lon="-3.37491">
        <ele>178</ele>
        <time>2023-10-30T23:14:18Z</time>
      </trkpt>
      <trkpt lat="48.527" lon="-3.37514">
        <ele>178</ele>
        <time>2023-10-30T23:14:42Z</time>
      </trkpt>
      <trkpt lat="48.52694" lon="-3.37635">
        <ele>184</ele>
        <time>2023-10-30T23:16:29Z</time>
      </trkpt>
      <trkpt lat="48.52705" lon="-3.37683">
        <ele>185</ele>
        <time>2023-10-30T23:17:14Z</time>
      </trkpt>
      <trkpt lat="48.52772" lon="-3.37768">
        <ele>183</ele>
        <time>2023-10-30T23:19:11Z</time>
      </trkpt>
      <trkpt lat="48.52789" lon="-3.37794">
        <ele>182</ele>
        <time>2023-10-30T23:19:43Z</time>
      </trkpt>
      <trkpt lat="48.52838" lon="-3.37851">
        <ele>180</ele>
        <time>2023-10-30T23:21:06Z</time>
      </trkpt>
      <trkpt lat="48.52857" lon="-3.37887">
        <ele>179</ele>
        <time>2023-10-30T23:21:47Z</time>
      </trkpt>
      <trkpt lat="48.52873" lon="-3.37907">
        <ele>178</ele>
        <time>2023-10-30T23:22:14Z</time>
      </trkpt>
      <trkpt lat="48.52884" lon="-3.37917">
        <ele>178</ele>
        <time>2023-10-30T23:22:31Z</time>
      </trkpt>
      <trkpt lat="48.52898" lon="-3.37918">
        <ele>178</ele>
        <time>2023-10-30T23:22:50Z</time>
      </trkpt>
      <trkpt lat="48.52952" lon="-3.37949">
        <ele>176</ele>
        <time>2023-10-30T23:24:07Z</time>
      </trkpt>
      <trkpt lat="48.52961" lon="-3.37955">
        <ele>176</ele>
        <time>2023-10-30T23:24:20Z</time>
      </trkpt>
      <trkpt lat="48.52973" lon="-3.37967">
        <ele>176</ele>
        <time>2023-10-30T23:24:40Z</time>
      </trkpt>
      <trkpt lat="48.52978" lon="-3.37976">
        <ele>176</ele>
        <time>2023-10-30T23:24:50Z</time>
      </trkpt>
      <trkpt lat="48.52984" lon="-3.3798">
        <ele>176</ele>
        <time>2023-10-30T23:24:59Z</time>
      </trkpt>
      <trkpt lat="48.52992" lon="-3.37976">
        <ele>175</ele>
        <time>2023-10-30T23:25:10Z</time>
      </trkpt>
      <trkpt lat="48.52991" lon="-3.37982">
        <ele>176</ele>
        <time>2023-10-30T23:25:15Z</time>
      </trkpt>
      <trkpt lat="48.52996" lon="-3.37992">
        <ele>176</ele>
        <time>2023-10-30T23:25:27Z</time>
      </trkpt>
      <trkpt lat="48.53008" lon="-3.38003">
        <ele>176</ele>
        <time>2023-10-30T23:25:45Z</time>
      </trkpt>
      <trkpt lat="48.53028" lon="-3.38033">
        <ele>176</ele>
        <time>2023-10-30T23:26:23Z</time>
      </trkpt>
      <trkpt lat="48.53045" lon="-3.38045">
        <ele>176</ele>
        <time>2023-10-30T23:26:48Z</time>
      </trkpt>
      <trkpt lat="48.53068" lon="-3.38069">
        <ele>176</ele>
        <time>2023-10-30T23:27:25Z</time>
      </trkpt>
      <trkpt lat="48.53088" lon="-3.3808">
        <ele>176</ele>
        <time>2023-10-30T23:27:54Z</time>
      </trkpt>
      <trkpt lat="48.53104" lon="-3.38086">
        <ele>176</ele>
        <time>2023-10-30T23:28:16Z</time>
      </trkpt>
      <trkpt lat="48.53118" lon="-3.38088">
        <ele>176</ele>
        <time>2023-10-30T23:28:34Z</time>
      </trkpt>
      <trkpt lat="48.5316" lon="-3.38114">
        <ele>177</ele>
        <time>2023-10-30T23:29:35Z</time>
      </trkpt>
      <trkpt lat="48.53188" lon="-3.38134">
        <ele>179</ele>
        <time>2023-10-30T23:30:16Z</time>
      </trkpt>
      <trkpt lat="48.53215" lon="-3.38166">
        <ele>181</ele>
        <time>2023-10-30T23:31:02Z</time>
      </trkpt>
      <trkpt lat="48.53217" lon="-3.38174">
        <ele>181</ele>
        <time>2023-10-30T23:31:10Z</time>
      </trkpt>
      <trkpt lat="48.53223" lon="-3.38172">
        <ele>182</ele>
        <time>2023-10-30T23:31:18Z</time>
      </trkpt>
      <trkpt lat="48.53226" lon="-3.38162">
        <ele>181</ele>
        <time>2023-10-30T23:31:28Z</time>
      </trkpt>
      <trkpt lat="48.53236" lon="-3.38159">
        <ele>181</ele>
        <time>2023-10-30T23:31:41Z</time>
      </trkpt>
      <trkpt lat="48.53236" lon="-3.38162">
        <ele>181</ele>
        <time>2023-10-30T23:31:44Z</time>
      </trkpt>
      <trkpt lat="48.53292" lon="-3.38075">
        <ele>174</ele>
        <time>2023-10-30T23:33:31Z</time>
      </trkpt>
      <trkpt lat="48.53304" lon="-3.38062">
        <ele>173</ele>
        <time>2023-10-30T23:33:51Z</time>
      </trkpt>
      <trkpt lat="48.53309" lon="-3.38062">
        <ele>173</ele>
        <time>2023-10-30T23:33:57Z</time>
      </trkpt>
      <trkpt lat="48.53332" lon="-3.38073">
        <ele>174</ele>
        <time>2023-10-30T23:34:30Z</time>
      </trkpt>
      <trkpt lat="48.53351" lon="-3.38087">
        <ele>172</ele>
        <time>2023-10-30T23:34:58Z</time>
      </trkpt>
      <trkpt lat="48.53361" lon="-3.38099">
        <ele>172</ele>
        <time>2023-10-30T23:35:15Z</time>
      </trkpt>
      <trkpt lat="48.53398" lon="-3.38122">
        <ele>168</ele>
        <time>2023-10-30T23:36:08Z</time>
      </trkpt>
      <trkpt lat="48.53409" lon="-3.38137">
        <ele>167</ele>
        <time>2023-10-30T23:36:28Z</time>
      </trkpt>
      <trkpt lat="48.53416" lon="-3.38188">
        <ele>167</ele>
        <time>2023-10-30T23:37:14Z</time>
      </trkpt>
      <trkpt lat="48.53427" lon="-3.382">
        <ele>165</ele>
        <time>2023-10-30T23:37:32Z</time>
      </trkpt>
      <trkpt lat="48.53449" lon="-3.38203">
        <ele>161</ele>
        <time>2023-10-30T23:38:02Z</time>
      </trkpt>
      <trkpt lat="48.53475" lon="-3.38226">
        <ele>156</ele>
        <time>2023-10-30T23:38:42Z</time>
      </trkpt>
      <trkpt lat="48.53483" lon="-3.3826">
        <ele>155</ele>
        <time>2023-10-30T23:39:14Z</time>
      </trkpt>
      <trkpt lat="48.53484" lon="-3.38356">
        <ele>153</ele>
        <time>2023-10-30T23:40:39Z</time>
      </trkpt>
      <trkpt lat="48.53488" lon="-3.38381">
        <ele>152</ele>
        <time>2023-10-30T23:41:01Z</time>
      </trkpt>
      <trkpt lat="48.535" lon="-3.38398">
        <ele>150</ele>
        <time>2023-10-30T23:41:23Z</time>
      </trkpt>
      <trkpt lat="48.53516" lon="-3.38406">
        <ele>149</ele>
        <time>2023-10-30T23:41:46Z</time>
      </trkpt>
      <trkpt lat="48.53565" lon="-3.38422">
        <ele>146</ele>
        <time>2023-10-30T23:42:53Z</time>
      </trkpt>
      <trkpt lat="48.53611" lon="-3.38449">
        <ele>145</ele>
        <time>2023-10-30T23:43:59Z</time>
      </trkpt>
      <trkpt lat="48.5363" lon="-3.38456">
        <ele>145</ele>
        <time>2023-10-30T23:44:25Z</time>
      </trkpt>
      <trkpt lat="48.53661" lon="-3.38487">
        <ele>146</ele>
        <time>2023-10-30T23:45:14Z</time>
      </trkpt>
      <trkpt lat="48.53671" lon="-3.38519">
        <ele>146</ele>
        <time>2023-10-30T23:45:45Z</time>
      </trkpt>
      <trkpt lat="48.53784" lon="-3.3853">
        <ele>139</ele>
        <time>2023-10-30T23:48:17Z</time>
      </trkpt>
      <trkpt lat="48.53977" lon="-3.38305">
        <ele>128</ele>
        <time>2023-10-30T23:53:42Z</time>
      </trkpt>
      <trkpt lat="48.54084" lon="-3.38363">
        <ele>112</ele>
        <time>2023-10-30T23:56:14Z</time>
      </trkpt>
      <trkpt lat="48.54132" lon="-3.38247">
        <ele>106</ele>
        <time>2023-10-30T23:58:15Z</time>
      </trkpt>
      <trkpt lat="48.54065" lon="-3.3866">
        <ele>104</ele>
        <time>2023-10-31T00:04:30Z</time>
      </trkpt>
      <trkpt lat="48.5408" lon="-3.38885">
        <ele>112</ele>
        <time>2023-10-31T00:07:50Z</time>
      </trkpt>
      <trkpt lat="48.54142" lon="-3.39052">
        <ele>109</ele>
        <time>2023-10-31T00:10:39Z</time>
      </trkpt>
      <trkpt lat="48.5418" lon="-3.39392">
        <ele>109</ele>
        <time>2023-10-31T00:15:44Z</time>
      </trkpt>
      <trkpt lat="48.54258" lon="-3.39568">
        <ele>99</ele>
        <time>2023-10-31T00:18:51Z</time>
      </trkpt>
      <trkpt lat="48.54274" lon="-3.39564">
        <ele>99</ele>
        <time>2023-10-31T00:19:13Z</time>
      </trkpt>
      <trkpt lat="48.54314" lon="-3.39577">
        <ele>97</ele>
        <time>2023-10-31T00:20:07Z</time>
      </trkpt>
      <trkpt lat="48.54332" lon="-3.39576">
        <ele>96</ele>
        <time>2023-10-31T00:20:31Z</time>
      </trkpt>
      <trkpt lat="48.54353" lon="-3.3957">
        <ele>96</ele>
        <time>2023-10-31T00:21:00Z</time>
      </trkpt>
      <trkpt lat="48.54365" lon="-3.39573">
        <ele>95</ele>
        <time>2023-10-31T00:21:16Z</time>
      </trkpt>
      <trkpt lat="48.54405" lon="-3.39606">
        <ele>94</ele>
        <time>2023-10-31T00:22:17Z</time>
      </trkpt>
      <trkpt lat="48.54418" lon="-3.39611">
        <ele>94</ele>
        <time>2023-10-31T00:22:35Z</time>
      </trkpt>
      <trkpt lat="48.54425" lon="-3.39607">
        <ele>94</ele>
        <time>2023-10-31T00:22:45Z</time>
      </trkpt>
    </trkseg>
  </trk>
</gpx>